sensor_id;sensor_type;location;lat;lon;timestamp;P1;durP1;ratioP1;P2;durP2;ratioP2
20619;SDS011;10469;42.720;23.252;2023-04-01T00:00:31;24.42;;;10.52;;
20619;SDS011;10469;42.720;23.252;2023-04-01T00:02:57;20.02;;;10.10;;
20619;SDS011;10469;42.720;23.252;2023-04-01T00:05:23;22.98;;;10.80;;
20619;SDS011;10469;42.720;23.252;2023-04-01T00:07:50;24.73;;;9.68;;
20619;SDS011;10469;42.720;23.252;2023-04-01T00:10:16;20.42;;;9.32;;
20619;SDS011;10469;42.720;23.252;2023-04-01T00:12:42;18.98;;;8.60;;
20619;SDS011;10469;42.720;23.252;2023-04-01T00:15:09;24.50;;;10.90;;
20619;SDS011;10469;42.720;23.252;2023-04-01T00:17:36;21.48;;;9.10;;
20619;SDS011;10469;42.720;23.252;2023-04-01T00:20:02;17.52;;;8.77;;
20619;SDS011;10469;42.720;23.252;2023-04-01T00:22:29;24.30;;;8.82;;
20619;SDS011;10469;42.720;23.252;2023-04-01T00:24:55;19.83;;;8.32;;
20619;SDS011;10469;42.720;23.252;2023-04-01T00:27:21;18.92;;;8.70;;
20619;SDS011;10469;42.720;23.252;2023-04-01T00:29:46;17.60;;;8.20;;
20619;SDS011;10469;42.720;23.252;2023-04-01T00:32:13;17.10;;;8.00;;
20619;SDS011;10469;42.720;23.252;2023-04-01T00:34:40;18.83;;;7.40;;
20619;SDS011;10469;42.720;23.252;2023-04-01T00:37:06;20.05;;;7.93;;
20619;SDS011;10469;42.720;23.252;2023-04-01T00:39:33;16.10;;;8.32;;
20619;SDS011;10469;42.720;23.252;2023-04-01T00:42:00;14.25;;;5.97;;
20619;SDS011;10469;42.720;23.252;2023-04-01T00:44:29;16.30;;;7.10;;
20619;SDS011;10469;42.720;23.252;2023-04-01T00:46:58;16.50;;;6.88;;
20619;SDS011;10469;42.720;23.252;2023-04-01T00:49:26;17.13;;;6.90;;
20619;SDS011;10469;42.720;23.252;2023-04-01T00:51:56;19.13;;;6.97;;
20619;SDS011;10469;42.720;23.252;2023-04-01T00:54:25;21.40;;;7.57;;
20619;SDS011;10469;42.720;23.252;2023-04-01T00:56:54;18.42;;;7.10;;
20619;SDS011;10469;42.720;23.252;2023-04-01T00:59:31;18.02;;;6.82;;
20619;SDS011;10469;42.720;23.252;2023-04-01T01:02:05;17.20;;;7.57;;
20619;SDS011;10469;42.720;23.252;2023-04-01T01:04:34;13.82;;;7.00;;
20619;SDS011;10469;42.720;23.252;2023-04-01T01:12:34;23.95;;;11.60;;
20619;SDS011;10469;42.720;23.252;2023-04-01T01:18:06;15.70;;;8.70;;
20619;SDS011;10469;42.720;23.252;2023-04-01T01:20:42;17.17;;;9.15;;
20619;SDS011;10469;42.720;23.252;2023-04-01T01:37:45;12.45;;;7.00;;
20619;SDS011;10469;42.720;23.252;2023-04-01T01:40:13;18.05;;;7.13;;
20619;SDS011;10469;42.720;23.252;2023-04-01T01:42:43;14.23;;;6.72;;
20619;SDS011;10469;42.720;23.252;2023-04-01T01:45:14;15.48;;;6.75;;
20619;SDS011;10469;42.720;23.252;2023-04-01T01:47:44;18.60;;;6.75;;
20619;SDS011;10469;42.720;23.252;2023-04-01T01:50:11;13.30;;;6.63;;
20619;SDS011;10469;42.720;23.252;2023-04-01T01:52:39;17.67;;;6.00;;
20619;SDS011;10469;42.720;23.252;2023-04-01T01:55:27;14.02;;;6.75;;
20619;SDS011;10469;42.720;23.252;2023-04-01T01:57:56;8.93;;;5.75;;
20619;SDS011;10469;42.720;23.252;2023-04-01T02:00:25;11.38;;;5.90;;
20619;SDS011;10469;42.720;23.252;2023-04-01T02:02:52;12.88;;;6.30;;
20619;SDS011;10469;42.720;23.252;2023-04-01T02:05:24;13.82;;;7.22;;
20619;SDS011;10469;42.720;23.252;2023-04-01T02:08:05;12.95;;;6.47;;
20619;SDS011;10469;42.720;23.252;2023-04-01T02:10:51;16.95;;;6.43;;
20619;SDS011;10469;42.720;23.252;2023-04-01T02:16:15;8.70;;;5.38;;
20619;SDS011;10469;42.720;23.252;2023-04-01T02:19:12;9.68;;;5.78;;
20619;SDS011;10469;42.720;23.252;2023-04-01T02:21:39;11.73;;;5.53;;
20619;SDS011;10469;42.720;23.252;2023-04-01T02:24:08;9.15;;;4.90;;
20619;SDS011;10469;42.720;23.252;2023-04-01T02:26:37;14.48;;;5.25;;
20619;SDS011;10469;42.720;23.252;2023-04-01T02:29:03;7.55;;;4.82;;
20619;SDS011;10469;42.720;23.252;2023-04-01T02:31:31;12.45;;;5.50;;
20619;SDS011;10469;42.720;23.252;2023-04-01T02:33:58;8.45;;;5.60;;
20619;SDS011;10469;42.720;23.252;2023-04-01T02:36:24;17.05;;;5.22;;
20619;SDS011;10469;42.720;23.252;2023-04-01T02:38:51;10.18;;;4.75;;
20619;SDS011;10469;42.720;23.252;2023-04-01T02:41:19;10.55;;;6.05;;
20619;SDS011;10469;42.720;23.252;2023-04-01T02:43:46;11.90;;;6.25;;
20619;SDS011;10469;42.720;23.252;2023-04-01T02:46:12;12.65;;;6.55;;
20619;SDS011;10469;42.720;23.252;2023-04-01T02:48:37;16.88;;;6.05;;
20619;SDS011;10469;42.720;23.252;2023-04-01T02:51:03;8.52;;;5.32;;
20619;SDS011;10469;42.720;23.252;2023-04-01T02:53:29;10.05;;;5.80;;
20619;SDS011;10469;42.720;23.252;2023-04-01T02:55:54;17.42;;;8.00;;
20619;SDS011;10469;42.720;23.252;2023-04-01T02:58:21;24.25;;;8.38;;
20619;SDS011;10469;42.720;23.252;2023-04-01T03:00:47;17.38;;;8.45;;
20619;SDS011;10469;42.720;23.252;2023-04-01T03:03:12;22.80;;;8.85;;
20619;SDS011;10469;42.720;23.252;2023-04-01T03:05:39;21.15;;;8.98;;
20619;SDS011;10469;42.720;23.252;2023-04-01T03:08:05;19.73;;;8.48;;
20619;SDS011;10469;42.720;23.252;2023-04-01T03:10:31;20.40;;;8.65;;
20619;SDS011;10469;42.720;23.252;2023-04-01T03:12:57;18.90;;;8.30;;
20619;SDS011;10469;42.720;23.252;2023-04-01T03:15:23;15.18;;;8.50;;
20619;SDS011;10469;42.720;23.252;2023-04-01T03:17:49;17.50;;;8.75;;
20619;SDS011;10469;42.720;23.252;2023-04-01T03:20:15;14.95;;;7.65;;
20619;SDS011;10469;42.720;23.252;2023-04-01T03:22:41;11.75;;;6.70;;
20619;SDS011;10469;42.720;23.252;2023-04-01T03:25:07;13.63;;;7.63;;
20619;SDS011;10469;42.720;23.252;2023-04-01T03:27:33;15.02;;;7.15;;
20619;SDS011;10469;42.720;23.252;2023-04-01T03:30:03;21.00;;;7.45;;
20619;SDS011;10469;42.720;23.252;2023-04-01T03:32:29;15.40;;;6.82;;
20619;SDS011;10469;42.720;23.252;2023-04-01T03:34:55;15.65;;;6.20;;
20619;SDS011;10469;42.720;23.252;2023-04-01T03:37:22;8.88;;;4.75;;
20619;SDS011;10469;42.720;23.252;2023-04-01T03:39:49;11.00;;;5.47;;
20619;SDS011;10469;42.720;23.252;2023-04-01T03:42:14;15.82;;;3.92;;
20619;SDS011;10469;42.720;23.252;2023-04-01T03:44:40;10.70;;;5.97;;
20619;SDS011;10469;42.720;23.252;2023-04-01T03:47:06;12.75;;;5.45;;
20619;SDS011;10469;42.720;23.252;2023-04-01T03:49:34;13.13;;;6.30;;
20619;SDS011;10469;42.720;23.252;2023-04-01T03:52:00;10.20;;;6.32;;
20619;SDS011;10469;42.720;23.252;2023-04-01T03:54:26;11.85;;;6.38;;
20619;SDS011;10469;42.720;23.252;2023-04-01T03:56:52;11.02;;;6.03;;
20619;SDS011;10469;42.720;23.252;2023-04-01T03:59:18;9.98;;;4.50;;
20619;SDS011;10469;42.720;23.252;2023-04-01T04:01:43;16.95;;;6.35;;
20619;SDS011;10469;42.720;23.252;2023-04-01T04:04:12;8.95;;;5.72;;
20619;SDS011;10469;42.720;23.252;2023-04-01T04:06:39;10.52;;;6.03;;
20619;SDS011;10469;42.720;23.252;2023-04-01T04:09:05;15.07;;;6.03;;
20619;SDS011;10469;42.720;23.252;2023-04-01T04:11:31;11.75;;;6.05;;
20619;SDS011;10469;42.720;23.252;2023-04-01T04:13:58;13.68;;;6.32;;
20619;SDS011;10469;42.720;23.252;2023-04-01T04:16:24;13.68;;;6.47;;
20619;SDS011;10469;42.720;23.252;2023-04-01T04:18:50;16.38;;;5.18;;
20619;SDS011;10469;42.720;23.252;2023-04-01T04:21:16;16.60;;;6.20;;
20619;SDS011;10469;42.720;23.252;2023-04-01T04:23:43;8.52;;;5.47;;
20619;SDS011;10469;42.720;23.252;2023-04-01T04:26:11;10.75;;;5.05;;
20619;SDS011;10469;42.720;23.252;2023-04-01T04:28:38;10.32;;;4.78;;
20619;SDS011;10469;42.720;23.252;2023-04-01T04:31:04;11.45;;;5.13;;
20619;SDS011;10469;42.720;23.252;2023-04-01T04:33:31;7.43;;;4.05;;
20619;SDS011;10469;42.720;23.252;2023-04-01T04:35:57;7.30;;;5.03;;
20619;SDS011;10469;42.720;23.252;2023-04-01T04:38:24;11.48;;;4.95;;
20619;SDS011;10469;42.720;23.252;2023-04-01T04:40:50;7.75;;;4.93;;
20619;SDS011;10469;42.720;23.252;2023-04-01T04:43:17;9.60;;;5.13;;
20619;SDS011;10469;42.720;23.252;2023-04-01T04:45:44;11.70;;;5.65;;
20619;SDS011;10469;42.720;23.252;2023-04-01T04:48:11;16.17;;;5.65;;
20619;SDS011;10469;42.720;23.252;2023-04-01T04:50:44;10.65;;;5.32;;
20619;SDS011;10469;42.720;23.252;2023-04-01T04:53:11;13.32;;;5.53;;
20619;SDS011;10469;42.720;23.252;2023-04-01T04:55:42;12.05;;;5.47;;
20619;SDS011;10469;42.720;23.252;2023-04-01T04:58:12;10.60;;;5.68;;
20619;SDS011;10469;42.720;23.252;2023-04-01T05:00:37;18.35;;;6.13;;
20619;SDS011;10469;42.720;23.252;2023-04-01T05:03:03;12.38;;;5.78;;
20619;SDS011;10469;42.720;23.252;2023-04-01T05:05:29;9.32;;;5.10;;
20619;SDS011;10469;42.720;23.252;2023-04-01T05:07:55;10.55;;;5.30;;
20619;SDS011;10469;42.720;23.252;2023-04-01T05:10:20;9.73;;;5.03;;
20619;SDS011;10469;42.720;23.252;2023-04-01T05:12:46;13.45;;;4.82;;
20619;SDS011;10469;42.720;23.252;2023-04-01T05:15:12;13.57;;;5.75;;
20619;SDS011;10469;42.720;23.252;2023-04-01T05:17:38;10.98;;;5.32;;
20619;SDS011;10469;42.720;23.252;2023-04-01T05:20:04;10.93;;;5.78;;
20619;SDS011;10469;42.720;23.252;2023-04-01T05:22:30;12.13;;;4.95;;
20619;SDS011;10469;42.720;23.252;2023-04-01T05:24:55;9.65;;;5.07;;
20619;SDS011;10469;42.720;23.252;2023-04-01T05:27:21;12.27;;;6.00;;
20619;SDS011;10469;42.720;23.252;2023-04-01T05:29:49;11.77;;;5.97;;
20619;SDS011;10469;42.720;23.252;2023-04-01T05:32:15;20.52;;;5.78;;
20619;SDS011;10469;42.720;23.252;2023-04-01T05:34:41;12.55;;;5.05;;
20619;SDS011;10469;42.720;23.252;2023-04-01T05:37:07;13.70;;;5.40;;
20619;SDS011;10469;42.720;23.252;2023-04-01T05:39:39;16.58;;;5.72;;
20619;SDS011;10469;42.720;23.252;2023-04-01T05:42:05;13.10;;;5.43;;
20619;SDS011;10469;42.720;23.252;2023-04-01T05:44:32;21.23;;;6.63;;
20619;SDS011;10469;42.720;23.252;2023-04-01T05:46:58;11.75;;;5.70;;
20619;SDS011;10469;42.720;23.252;2023-04-01T05:49:26;14.05;;;4.90;;
20619;SDS011;10469;42.720;23.252;2023-04-01T05:51:51;12.18;;;4.97;;
20619;SDS011;10469;42.720;23.252;2023-04-01T05:54:19;22.98;;;5.57;;
20619;SDS011;10469;42.720;23.252;2023-04-01T05:56:47;13.40;;;5.50;;
20619;SDS011;10469;42.720;23.252;2023-04-01T05:59:13;10.82;;;4.93;;
20619;SDS011;10469;42.720;23.252;2023-04-01T06:01:39;9.50;;;3.90;;
20619;SDS011;10469;42.720;23.252;2023-04-01T06:04:05;8.23;;;4.85;;
20619;SDS011;10469;42.720;23.252;2023-04-01T06:06:31;12.15;;;5.50;;
20619;SDS011;10469;42.720;23.252;2023-04-01T06:09:01;10.07;;;5.70;;
20619;SDS011;10469;42.720;23.252;2023-04-01T06:11:51;13.48;;;6.50;;
20619;SDS011;10469;42.720;23.252;2023-04-01T06:20:16;9.38;;;5.53;;
20619;SDS011;10469;42.720;23.252;2023-04-01T06:23:04;7.75;;;3.78;;
20619;SDS011;10469;42.720;23.252;2023-04-01T06:39:38;4.60;;;3.67;;
20619;SDS011;10469;42.720;23.252;2023-04-01T06:48:29;10.98;;;4.10;;
20619;SDS011;10469;42.720;23.252;2023-04-01T06:54:24;9.80;;;4.28;;
20619;SDS011;10469;42.720;23.252;2023-04-01T06:56:58;9.27;;;4.47;;
20619;SDS011;10469;42.720;23.252;2023-04-01T06:59:48;10.02;;;4.70;;
20619;SDS011;10469;42.720;23.252;2023-04-01T07:05:16;5.88;;;4.13;;
20619;SDS011;10469;42.720;23.252;2023-04-01T07:07:46;5.72;;;4.00;;
20619;SDS011;10469;42.720;23.252;2023-04-01T07:10:18;8.15;;;4.20;;
20619;SDS011;10469;42.720;23.252;2023-04-01T07:12:52;6.72;;;3.47;;
20619;SDS011;10469;42.720;23.252;2023-04-01T07:15:33;9.07;;;3.17;;
20619;SDS011;10469;42.720;23.252;2023-04-01T07:18:12;7.78;;;3.75;;
20619;SDS011;10469;42.720;23.252;2023-04-01T07:20:42;4.88;;;3.47;;
20619;SDS011;10469;42.720;23.252;2023-04-01T07:23:22;7.55;;;3.15;;
20619;SDS011;10469;42.720;23.252;2023-04-01T07:25:58;6.82;;;3.50;;
20619;SDS011;10469;42.720;23.252;2023-04-01T07:28:30;7.95;;;3.80;;
20619;SDS011;10469;42.720;23.252;2023-04-01T07:50:25;5.13;;;3.33;;
20619;SDS011;10469;42.720;23.252;2023-04-01T07:58:12;8.68;;;4.03;;
20619;SDS011;10469;42.720;23.252;2023-04-01T08:01:02;11.27;;;3.90;;
20619;SDS011;10469;42.720;23.252;2023-04-01T08:06:33;14.35;;;3.70;;
20619;SDS011;10469;42.720;23.252;2023-04-01T08:23:30;6.15;;;2.92;;
20619;SDS011;10469;42.720;23.252;2023-04-01T08:28:44;10.43;;;3.47;;
20619;SDS011;10469;42.720;23.252;2023-04-01T08:31:18;11.10;;;4.13;;
20619;SDS011;10469;42.720;23.252;2023-04-01T08:33:56;5.90;;;3.42;;
20619;SDS011;10469;42.720;23.252;2023-04-01T08:36:33;7.63;;;2.97;;
20619;SDS011;10469;42.720;23.252;2023-04-01T08:39:04;9.90;;;3.30;;
20619;SDS011;10469;42.720;23.252;2023-04-01T08:44:17;13.00;;;3.33;;
20619;SDS011;10469;42.720;23.252;2023-04-01T08:58:17;8.05;;;3.00;;
20619;SDS011;10469;42.720;23.252;2023-04-01T09:03:47;7.55;;;3.45;;
20619;SDS011;10469;42.720;23.252;2023-04-01T09:09:36;5.40;;;2.55;;
20619;SDS011;10469;42.720;23.252;2023-04-01T09:12:25;4.60;;;2.17;;
20619;SDS011;10469;42.720;23.252;2023-04-01T09:29:20;18.02;;;2.83;;
20619;SDS011;10469;42.720;23.252;2023-04-01T09:32:16;9.52;;;2.45;;
20619;SDS011;10469;42.720;23.252;2023-04-01T09:35:02;5.07;;;2.38;;
20619;SDS011;10469;42.720;23.252;2023-04-01T09:37:41;7.63;;;2.38;;
20619;SDS011;10469;42.720;23.252;2023-04-01T09:43:35;7.07;;;2.55;;
20619;SDS011;10469;42.720;23.252;2023-04-01T09:46:14;5.47;;;3.17;;
20619;SDS011;10469;42.720;23.252;2023-04-01T09:51:47;8.57;;;2.08;;
20619;SDS011;10469;42.720;23.252;2023-04-01T09:54:42;9.18;;;2.60;;
20619;SDS011;10469;42.720;23.252;2023-04-01T10:26:19;4.93;;;2.05;;
20619;SDS011;10469;42.720;23.252;2023-04-01T10:43:34;8.23;;;2.22;;
20619;SDS011;10469;42.720;23.252;2023-04-01T10:49:10;2.88;;;1.60;;
20619;SDS011;10469;42.720;23.252;2023-04-01T11:08:16;4.60;;;2.42;;
20619;SDS011;10469;42.720;23.252;2023-04-01T11:25:19;13.85;;;3.00;;
20619;SDS011;10469;42.720;23.252;2023-04-01T11:36:51;6.38;;;2.20;;
20619;SDS011;10469;42.720;23.252;2023-04-01T11:39:33;4.35;;;2.00;;
20619;SDS011;10469;42.720;23.252;2023-04-01T11:45:15;5.35;;;2.05;;
20619;SDS011;10469;42.720;23.252;2023-04-01T12:09:49;4.55;;;1.90;;
20619;SDS011;10469;42.720;23.252;2023-04-01T12:12:38;4.13;;;2.40;;
20619;SDS011;10469;42.720;23.252;2023-04-01T12:20:50;3.28;;;2.10;;
20619;SDS011;10469;42.720;23.252;2023-04-01T12:23:51;5.13;;;2.10;;
20619;SDS011;10469;42.720;23.252;2023-04-01T12:26:40;10.20;;;2.28;;
20619;SDS011;10469;42.720;23.252;2023-04-01T12:32:25;2.97;;;2.22;;
20619;SDS011;10469;42.720;23.252;2023-04-01T12:38:11;6.25;;;2.55;;
20619;SDS011;10469;42.720;23.252;2023-04-01T12:43:34;2.67;;;2.40;;
20619;SDS011;10469;42.720;23.252;2023-04-01T13:10:45;5.05;;;3.00;;
20619;SDS011;10469;42.720;23.252;2023-04-01T13:13:29;6.38;;;2.92;;
20619;SDS011;10469;42.720;23.252;2023-04-01T13:24:53;4.63;;;3.00;;
20619;SDS011;10469;42.720;23.252;2023-04-01T13:34:32;6.80;;;2.20;;
20619;SDS011;10469;42.720;23.252;2023-04-01T13:39:15;10.35;;;1.98;;
20619;SDS011;10469;42.720;23.252;2023-04-01T13:53:25;3.93;;;1.87;;
20619;SDS011;10469;42.720;23.252;2023-04-01T14:01:42;4.15;;;2.10;;
20619;SDS011;10469;42.720;23.252;2023-04-01T14:09:48;2.58;;;1.70;;
20619;SDS011;10469;42.720;23.252;2023-04-01T14:12:45;2.80;;;1.42;;
20619;SDS011;10469;42.720;23.252;2023-04-01T14:15:29;2.78;;;1.88;;
20619;SDS011;10469;42.720;23.252;2023-04-01T14:18:27;4.25;;;1.83;;
20619;SDS011;10469;42.720;23.252;2023-04-01T14:32:16;1.23;;;1.13;;
20619;SDS011;10469;42.720;23.252;2023-04-01T14:43:23;1.98;;;1.30;;
20619;SDS011;10469;42.720;23.252;2023-04-01T14:49:47;3.03;;;2.55;;
20619;SDS011;10469;42.720;23.252;2023-04-01T14:51:56;8.00;;;2.53;;
20619;SDS011;10469;42.720;23.252;2023-04-01T14:54:35;4.15;;;2.50;;
20619;SDS011;10469;42.720;23.252;2023-04-01T14:57:15;6.07;;;2.50;;
20619;SDS011;10469;42.720;23.252;2023-04-01T14:59:51;4.88;;;1.70;;
20619;SDS011;10469;42.720;23.252;2023-04-01T15:19:06;2.78;;;1.77;;
20619;SDS011;10469;42.720;23.252;2023-04-01T15:24:47;7.05;;;3.17;;
20619;SDS011;10469;42.720;23.252;2023-04-01T15:36:25;5.72;;;3.05;;
20619;SDS011;10469;42.720;23.252;2023-04-01T15:39:22;9.05;;;3.22;;
20619;SDS011;10469;42.720;23.252;2023-04-01T15:42:21;10.38;;;3.88;;
20619;SDS011;10469;42.720;23.252;2023-04-01T15:44:59;2.25;;;1.20;;
20619;SDS011;10469;42.720;23.252;2023-04-01T15:47:32;2.97;;;1.23;;
20619;SDS011;10469;42.720;23.252;2023-04-01T15:55:48;2.47;;;2.03;;
20619;SDS011;10469;42.720;23.252;2023-04-01T16:12:35;4.28;;;2.42;;
20619;SDS011;10469;42.720;23.252;2023-04-01T16:15:11;2.47;;;2.20;;
20619;SDS011;10469;42.720;23.252;2023-04-01T16:21:12;3.05;;;2.67;;
20619;SDS011;10469;42.720;23.252;2023-04-01T16:23:59;3.13;;;2.70;;
20619;SDS011;10469;42.720;23.252;2023-04-01T16:26:48;3.92;;;3.08;;
20619;SDS011;10469;42.720;23.252;2023-04-01T16:29:50;2.72;;;2.53;;
20619;SDS011;10469;42.720;23.252;2023-04-01T16:32:37;3.30;;;2.75;;
20619;SDS011;10469;42.720;23.252;2023-04-01T16:35:20;3.45;;;2.60;;
20619;SDS011;10469;42.720;23.252;2023-04-01T16:38:00;2.95;;;2.63;;
20619;SDS011;10469;42.720;23.252;2023-04-01T16:46:17;3.20;;;2.33;;
20619;SDS011;10469;42.720;23.252;2023-04-01T16:51:53;2.97;;;2.38;;
20619;SDS011;10469;42.720;23.252;2023-04-01T16:57:23;2.70;;;2.20;;
20619;SDS011;10469;42.720;23.252;2023-04-01T17:08:47;3.13;;;2.10;;
20619;SDS011;10469;42.720;23.252;2023-04-01T17:11:33;2.22;;;2.03;;
20619;SDS011;10469;42.720;23.252;2023-04-01T17:22:48;3.40;;;2.65;;
20619;SDS011;10469;42.720;23.252;2023-04-01T17:36:45;3.13;;;2.53;;
20619;SDS011;10469;42.720;23.252;2023-04-01T17:42:15;2.78;;;2.58;;
20619;SDS011;10469;42.720;23.252;2023-04-01T17:50:14;2.45;;;2.25;;
20619;SDS011;10469;42.720;23.252;2023-04-01T17:55:55;2.40;;;2.20;;
20619;SDS011;10469;42.720;23.252;2023-04-01T18:01:11;2.20;;;2.00;;
20619;SDS011;10469;42.720;23.252;2023-04-01T18:08:56;4.40;;;2.70;;
20619;SDS011;10469;42.720;23.252;2023-04-01T18:14:36;3.17;;;2.83;;
20619;SDS011;10469;42.720;23.252;2023-04-01T18:20:05;2.60;;;2.40;;
20619;SDS011;10469;42.720;23.252;2023-04-01T18:23:03;2.92;;;2.72;;
20619;SDS011;10469;42.720;23.252;2023-04-01T18:25:44;2.92;;;2.70;;
20619;SDS011;10469;42.720;23.252;2023-04-01T18:30:52;3.03;;;2.72;;
20619;SDS011;10469;42.720;23.252;2023-04-01T18:33:29;3.00;;;2.72;;
20619;SDS011;10469;42.720;23.252;2023-04-01T18:39:02;3.00;;;2.70;;
20619;SDS011;10469;42.720;23.252;2023-04-01T18:47:21;3.22;;;2.90;;
20619;SDS011;10469;42.720;23.252;2023-04-01T18:50:14;3.00;;;2.70;;
20619;SDS011;10469;42.720;23.252;2023-04-01T18:52:48;2.80;;;2.60;;
20619;SDS011;10469;42.720;23.252;2023-04-01T18:58:28;5.13;;;4.13;;
20619;SDS011;10469;42.720;23.252;2023-04-01T19:01:15;6.63;;;4.30;;
20619;SDS011;10469;42.720;23.252;2023-04-01T19:08:52;3.78;;;2.80;;
20619;SDS011;10469;42.720;23.252;2023-04-01T19:14:05;6.03;;;2.75;;
20619;SDS011;10469;42.720;23.252;2023-04-01T19:16:41;2.05;;;1.95;;
20619;SDS011;10469;42.720;23.252;2023-04-01T19:19:33;3.35;;;2.00;;
20619;SDS011;10469;42.720;23.252;2023-04-01T19:27:50;2.53;;;2.33;;
20619;SDS011;10469;42.720;23.252;2023-04-01T19:33:15;2.88;;;2.63;;
20619;SDS011;10469;42.720;23.252;2023-04-01T19:38:38;3.60;;;3.15;;
20619;SDS011;10469;42.720;23.252;2023-04-01T19:43:53;2.65;;;2.45;;
20619;SDS011;10469;42.720;23.252;2023-04-01T19:46:35;2.33;;;2.08;;
20619;SDS011;10469;42.720;23.252;2023-04-01T19:52:00;4.25;;;2.17;;
20619;SDS011;10469;42.720;23.252;2023-04-01T20:00:23;2.03;;;1.75;;
20619;SDS011;10469;42.720;23.252;2023-04-01T20:05:46;1.48;;;1.38;;
20619;SDS011;10469;42.720;23.252;2023-04-01T20:11:14;1.67;;;1.58;;
20619;SDS011;10469;42.720;23.252;2023-04-01T20:16:53;4.93;;;1.90;;
20619;SDS011;10469;42.720;23.252;2023-04-01T20:19:43;4.45;;;1.80;;
20619;SDS011;10469;42.720;23.252;2023-04-01T20:22:22;2.97;;;2.22;;
20619;SDS011;10469;42.720;23.252;2023-04-01T20:24:57;4.10;;;2.45;;
20619;SDS011;10469;42.720;23.252;2023-04-01T20:27:27;5.30;;;2.80;;
20619;SDS011;10469;42.720;23.252;2023-04-01T20:30:07;4.65;;;3.03;;
20619;SDS011;10469;42.720;23.252;2023-04-01T20:35:50;2.47;;;2.20;;
20619;SDS011;10469;42.720;23.252;2023-04-01T20:46:45;2.53;;;1.98;;
20619;SDS011;10469;42.720;23.252;2023-04-01T20:52:02;4.38;;;2.00;;
20619;SDS011;10469;42.720;23.252;2023-04-01T20:57:19;2.17;;;1.70;;
20619;SDS011;10469;42.720;23.252;2023-04-01T21:15:03;3.30;;;2.22;;
20619;SDS011;10469;42.720;23.252;2023-04-01T21:27:47;3.58;;;2.50;;
20619;SDS011;10469;42.720;23.252;2023-04-01T21:41:01;2.30;;;2.10;;
20619;SDS011;10469;42.720;23.252;2023-04-01T22:01:08;1.60;;;1.50;;
20619;SDS011;10469;42.720;23.252;2023-04-01T22:06:38;1.52;;;1.42;;
20619;SDS011;10469;42.720;23.252;2023-04-01T22:09:12;1.63;;;1.50;;
20619;SDS011;10469;42.720;23.252;2023-04-01T22:11:57;1.63;;;1.52;;
20619;SDS011;10469;42.720;23.252;2023-04-01T22:19:52;3.13;;;1.90;;
20619;SDS011;10469;42.720;23.252;2023-04-01T22:31:20;4.60;;;2.40;;
20619;SDS011;10469;42.720;23.252;2023-04-01T22:33:59;4.70;;;2.58;;
20619;SDS011;10469;42.720;23.252;2023-04-01T22:36:39;3.60;;;2.50;;
20619;SDS011;10469;42.720;23.252;2023-04-01T22:50:33;1.70;;;1.60;;
20619;SDS011;10469;42.720;23.252;2023-04-01T22:55:44;1.60;;;1.50;;
20619;SDS011;10469;42.720;23.252;2023-04-01T22:58:15;5.63;;;1.73;;
20619;SDS011;10469;42.720;23.252;2023-04-01T23:00:50;1.95;;;1.83;;
20619;SDS011;10469;42.720;23.252;2023-04-01T23:03:22;1.60;;;1.50;;
20619;SDS011;10469;42.720;23.252;2023-04-01T23:09:30;1.35;;;1.30;;
20619;SDS011;10469;42.720;23.252;2023-04-01T23:12:38;1.50;;;1.40;;
20619;SDS011;10469;42.720;23.252;2023-04-01T23:15:28;2.50;;;1.50;;
20619;SDS011;10469;42.720;23.252;2023-04-01T23:27:33;3.53;;;1.52;;
20619;SDS011;10469;42.720;23.252;2023-04-01T23:35:48;3.95;;;1.90;;
20619;SDS011;10469;42.720;23.252;2023-04-01T23:38:20;2.85;;;1.80;;
20619;SDS011;10469;42.720;23.252;2023-04-01T23:40:49;4.53;;;1.98;;
20619;SDS011;10469;42.720;23.252;2023-04-01T23:43:26;3.60;;;1.90;;
20619;SDS011;10469;42.720;23.252;2023-04-01T23:45:56;3.50;;;1.90;;
20619;SDS011;10469;42.720;23.252;2023-04-01T23:48:30;1.58;;;1.45;;
20619;SDS011;10469;42.720;23.252;2023-04-01T23:51:10;1.60;;;1.50;;
20619;SDS011;10469;42.720;23.252;2023-04-01T23:53:56;3.45;;;1.80;;
20619;SDS011;10469;42.720;23.252;2023-04-01T23:56:41;3.25;;;1.35;;
20619;SDS011;10469;42.720;23.252;2023-04-01T23:59:15;1.80;;;1.50;;
